createdAt,value
2022-11-06T00:00:07.003Z,89.40
2022-11-06T00:02:34.841Z,90.00
2022-11-06T00:05:16.391Z,89.30
2022-11-06T00:07:47.399Z,88.10
2022-11-06T00:10:15.364Z,89.10
2022-11-06T00:12:43.061Z,88.90
2022-11-06T00:15:11.243Z,89.20
2022-11-06T00:17:39.081Z,88.80
2022-11-06T00:20:07.473Z,88.60
2022-11-06T00:22:35.305Z,87.70
2022-11-06T00:25:04.390Z,88.80
2022-11-06T00:27:31.983Z,87.80
2022-11-06T00:29:59.592Z,87.40
2022-11-06T00:32:27.179Z,87.60
2022-11-06T00:34:54.722Z,87.30
2022-11-06T00:37:22.295Z,87.40
2022-11-06T00:39:49.939Z,87.40
2022-11-06T00:42:18.861Z,87.30
2022-11-06T00:44:46.445Z,87.30
2022-11-06T00:47:14.257Z,87.40
2022-11-06T00:49:41.808Z,87.00
2022-11-06T00:52:09.391Z,87.30
2022-11-06T00:54:37.008Z,87.20
2022-11-06T00:57:04.734Z,87.40
2022-11-06T00:59:33.642Z,87.30
2022-11-06T01:02:01.621Z,87.50
2022-11-06T01:04:29.277Z,87.90
2022-11-06T01:06:57.677Z,87.40
2022-11-06T01:09:26.236Z,87.60
2022-11-06T01:14:43.977Z,87.40
2022-11-06T01:17:11.982Z,88.00
2022-11-06T01:19:39.708Z,87.90
2022-11-06T01:22:07.328Z,87.80
2022-11-06T01:24:35.024Z,88.00
2022-11-06T01:27:25.513Z,87.50
2022-11-06T01:29:51.612Z,87.60
2022-11-06T01:32:19.231Z,88.00
2022-11-06T01:34:46.894Z,88.10
2022-11-06T01:37:15.044Z,88.00
2022-11-06T01:39:43.052Z,88.30
2022-11-06T01:42:11.400Z,88.60
2022-11-06T01:44:57.508Z,88.30
2022-11-06T01:47:27.270Z,88.80
2022-11-06T01:49:58.231Z,88.70
2022-11-06T01:52:27.030Z,88.60
2022-11-06T01:54:56.803Z,88.10
2022-11-06T01:57:24.660Z,87.90
2022-11-06T01:59:53.667Z,88.10
2022-11-06T02:02:21.584Z,88.40
2022-11-06T02:04:50.920Z,88.40
2022-11-06T02:07:18.896Z,88.10
2022-11-06T02:09:46.825Z,88.20
2022-11-06T02:12:27.421Z,88.10
2022-11-06T02:18:03.074Z,88.10
2022-11-06T02:20:36.352Z,88.20
2022-11-06T02:23:11.570Z,88.00
2022-11-06T02:25:44.821Z,88.20
2022-11-06T02:28:18.400Z,88.00
2022-11-06T02:30:47.727Z,87.60
2022-11-06T02:33:17.956Z,87.70
2022-11-06T02:35:50.601Z,87.50
2022-11-06T02:38:19.870Z,88.20
2022-11-06T02:40:49.803Z,87.20
2022-11-06T02:43:20.379Z,88.40
2022-11-06T02:45:50.640Z,87.80
2022-11-06T02:48:20.983Z,87.40
2022-11-06T02:50:50.848Z,87.30
2022-11-06T02:53:27.282Z,87.70
2022-11-06T02:55:57.281Z,86.80
2022-11-06T02:58:30.011Z,87.90
2022-11-06T03:01:00.462Z,87.50
2022-11-06T03:03:30.251Z,87.30
2022-11-06T03:05:59.922Z,87.30
2022-11-06T03:08:31.586Z,88.00
2022-11-06T03:11:04.804Z,87.80
2022-11-06T03:13:40.753Z,88.60
2022-11-06T03:16:15.093Z,88.80
2022-11-06T03:18:44.247Z,87.90
2022-11-06T03:21:18.214Z,88.70
2022-11-06T03:23:49.204Z,88.50
2022-11-06T03:26:19.144Z,87.10
2022-11-06T03:28:55.278Z,88.40
2022-11-06T03:31:28.479Z,88.70
2022-11-06T03:33:58.382Z,88.70
2022-11-06T03:36:28.009Z,88.20
2022-11-06T03:39:00.479Z,88.00
2022-11-06T03:41:31.965Z,88.00
2022-11-06T03:44:04.667Z,88.00
2022-11-06T03:46:37.534Z,88.40
2022-11-06T03:49:06.852Z,88.30
2022-11-06T03:51:39.654Z,87.10
2022-11-06T03:54:08.937Z,87.70
2022-11-06T03:56:37.966Z,88.10
2022-11-06T03:59:08.317Z,87.90
2022-11-06T04:01:38.100Z,88.20
2022-11-06T04:04:08.027Z,87.50
2022-11-06T04:06:38.914Z,87.70
2022-11-06T04:09:25.337Z,88.20
2022-11-06T04:12:14.107Z,86.90
2022-11-06T04:14:49.742Z,87.70
2022-11-06T04:17:18.502Z,87.40
2022-11-06T04:19:53.684Z,87.20
2022-11-06T04:22:35.849Z,88.20
2022-11-06T04:25:27.550Z,88.50
2022-11-06T04:28:04.426Z,88.90
2022-11-06T04:30:36.633Z,89.20
2022-11-06T04:33:07.393Z,89.50
2022-11-06T04:35:53.875Z,89.60
2022-11-06T04:38:30.015Z,89.60
2022-11-06T04:41:06.797Z,89.70
2022-11-06T04:43:38.354Z,88.90
2022-11-06T04:46:09.595Z,89.30
2022-11-06T04:48:40.589Z,88.40
2022-11-06T04:51:14.347Z,88.70
2022-11-06T04:53:43.205Z,88.10
2022-11-06T04:56:12.633Z,88.40
2022-11-06T04:58:41.994Z,87.90
2022-11-06T05:01:11.353Z,87.40
2022-11-06T05:03:47.641Z,88.90
2022-11-06T05:06:18.144Z,88.90
2022-11-06T05:08:46.225Z,86.70
2022-11-06T05:11:14.264Z,87.20
2022-11-06T05:13:42.059Z,87.00
2022-11-06T05:16:15.964Z,87.10
2022-11-06T05:18:43.688Z,88.10
2022-11-06T05:21:29.078Z,87.70
2022-11-06T05:23:56.712Z,87.50
2022-11-06T05:26:24.502Z,87.40
2022-11-06T05:28:52.406Z,87.10
2022-11-06T05:31:21.742Z,87.00
2022-11-06T05:33:49.626Z,88.00
2022-11-06T05:36:17.687Z,87.00
2022-11-06T05:38:45.716Z,86.10
2022-11-06T05:41:13.531Z,86.40
2022-11-06T05:43:47.883Z,86.40
2022-11-06T05:49:05.145Z,86.90
2022-11-06T05:51:35.938Z,87.90
2022-11-06T05:54:04.454Z,86.70
2022-11-06T05:56:35.318Z,86.00
2022-11-06T05:59:03.030Z,87.80
2022-11-06T06:01:30.658Z,87.60
2022-11-06T06:03:58.399Z,87.50
2022-11-06T06:06:27.437Z,87.40
2022-11-06T06:08:55.005Z,87.40
2022-11-06T06:11:23.694Z,87.20
2022-11-06T06:13:51.254Z,87.40
2022-11-06T06:16:18.838Z,87.70
2022-11-06T06:18:46.505Z,88.60
2022-11-06T06:21:14.209Z,88.80
2022-11-06T06:23:43.293Z,89.00
2022-11-06T06:26:11.241Z,89.00
2022-11-06T06:28:38.995Z,89.10
2022-11-06T06:31:07.013Z,89.80
2022-11-06T06:33:34.708Z,89.10
2022-11-06T06:36:03.768Z,89.80
2022-11-06T06:38:31.457Z,90.20
2022-11-06T06:41:03.277Z,89.30
2022-11-06T06:43:31.173Z,89.30
2022-11-06T06:45:59.181Z,89.20
2022-11-06T06:48:26.935Z,89.30
2022-11-06T06:50:57.177Z,88.70
2022-11-06T06:53:25.015Z,88.50
2022-11-06T06:55:52.564Z,88.60
2022-11-06T06:58:21.719Z,88.30
2022-11-06T07:00:49.539Z,88.40
2022-11-06T07:03:17.119Z,88.30
2022-11-06T07:05:44.787Z,88.30
2022-11-06T07:08:12.776Z,87.80
2022-11-06T07:10:40.540Z,87.80
2022-11-06T07:13:08.278Z,87.60
2022-11-06T07:15:37.187Z,87.40
2022-11-06T07:18:05.595Z,87.30
2022-11-06T07:20:33.603Z,87.50
2022-11-06T07:23:05.639Z,87.40
2022-11-06T07:25:33.204Z,87.60
2022-11-06T07:28:02.821Z,87.20
2022-11-06T07:30:30.695Z,87.10
2022-11-06T07:33:00.624Z,87.10
2022-11-06T07:35:28.587Z,86.80
2022-11-06T07:37:56.210Z,87.00
2022-11-06T07:40:23.789Z,87.00
2022-11-06T07:42:51.462Z,86.80
2022-11-06T07:45:18.990Z,86.80
2022-11-06T07:47:46.548Z,86.70
2022-11-06T07:50:15.466Z,86.60
2022-11-06T07:52:43.013Z,86.40
2022-11-06T07:55:10.648Z,86.40
2022-11-06T07:57:38.441Z,86.40
2022-11-06T08:00:06.991Z,86.40
2022-11-06T08:02:34.625Z,85.90
2022-11-06T08:05:02.326Z,85.90
2022-11-06T08:07:31.313Z,86.00
2022-11-06T08:09:59.021Z,87.10
2022-11-06T08:12:26.728Z,87.60
2022-11-06T08:14:54.332Z,87.80
2022-11-06T08:17:22.299Z,87.30
2022-11-06T08:19:49.832Z,87.60
2022-11-06T08:22:17.473Z,87.00
2022-11-06T08:24:46.514Z,86.30
2022-11-06T08:27:14.138Z,86.40
2022-11-06T08:29:41.984Z,86.30
2022-11-06T08:32:09.673Z,86.20
2022-11-06T08:34:37.274Z,86.60
2022-11-06T08:37:05.031Z,86.00
2022-11-06T08:39:32.807Z,86.10
2022-11-06T08:42:01.827Z,85.90
2022-11-06T08:44:29.387Z,86.20
2022-11-06T08:46:57.024Z,86.60
2022-11-06T08:49:24.660Z,86.30
2022-11-06T08:51:53.799Z,85.70
2022-11-06T08:54:21.599Z,88.10
2022-11-06T08:56:49.727Z,87.90
2022-11-06T08:59:18.650Z,86.60
2022-11-06T09:01:46.870Z,87.50
2022-11-06T09:04:14.541Z,85.90
2022-11-06T09:06:42.287Z,84.60
2022-11-06T09:09:11.000Z,84.20
2022-11-06T09:11:38.588Z,83.80
2022-11-06T09:14:06.250Z,85.30
2022-11-06T09:16:35.144Z,84.30
2022-11-06T09:19:02.850Z,83.60
2022-11-06T09:21:30.435Z,83.40
2022-11-06T09:23:58.332Z,84.40
2022-11-06T09:26:25.879Z,85.40
2022-11-06T09:28:53.461Z,85.10
2022-11-06T09:31:21.177Z,83.20
2022-11-06T09:33:50.970Z,83.60
2022-11-06T09:36:18.607Z,83.60
2022-11-06T09:38:46.187Z,83.60
2022-11-06T09:41:18.131Z,83.70
2022-11-06T09:44:05.321Z,83.40
2022-11-06T09:46:34.883Z,83.30
2022-11-06T09:49:11.846Z,83.50
2022-11-06T09:51:40.941Z,83.50
2022-11-06T09:54:14.427Z,83.00
2022-11-06T09:56:43.086Z,83.10
2022-11-06T09:59:13.231Z,82.90
2022-11-06T10:01:43.119Z,83.00
2022-11-06T10:04:17.853Z,82.90
2022-11-06T10:06:45.466Z,83.00
2022-11-06T10:09:13.117Z,82.70
2022-11-06T10:11:48.399Z,83.00
2022-11-06T10:14:24.139Z,83.20
2022-11-06T10:16:55.432Z,83.00
2022-11-06T10:19:28.953Z,83.00
2022-11-06T10:22:00.724Z,82.70
2022-11-06T10:24:33.305Z,82.80
2022-11-06T10:27:02.587Z,83.00
2022-11-06T10:29:41.323Z,83.10
2022-11-06T10:32:28.027Z,82.80
2022-11-06T10:35:00.292Z,83.40
2022-11-06T10:37:29.701Z,83.20
2022-11-06T10:39:57.908Z,83.60
2022-11-06T10:42:35.189Z,83.70
2022-11-06T10:45:06.863Z,84.00
2022-11-06T10:47:35.393Z,84.00
2022-11-06T10:50:05.659Z,83.70
2022-11-06T10:52:42.409Z,84.00
2022-11-06T10:55:21.753Z,83.70
2022-11-06T10:57:53.481Z,83.60
2022-11-06T11:00:21.060Z,84.00
2022-11-06T11:02:50.320Z,84.10
2022-11-06T11:05:21.018Z,84.10
2022-11-06T11:07:49.725Z,83.70
2022-11-06T11:10:27.773Z,83.40
2022-11-06T11:12:56.490Z,83.00
2022-11-06T11:15:24.690Z,82.60
2022-11-06T11:18:08.728Z,82.80
2022-11-06T11:20:38.551Z,82.60
2022-11-06T11:23:07.428Z,83.20
2022-11-06T11:25:35.364Z,83.30
2022-11-06T11:28:05.120Z,83.20
2022-11-06T11:30:32.823Z,83.00
2022-11-06T11:33:00.396Z,83.10
2022-11-06T11:35:29.402Z,83.00
2022-11-06T11:38:08.944Z,82.90
2022-11-06T11:40:37.420Z,83.00
2022-11-06T11:43:18.842Z,83.10
2022-11-06T11:46:02.007Z,83.10
2022-11-06T11:48:41.548Z,83.50
2022-11-06T11:51:13.663Z,83.30
2022-11-06T11:53:42.869Z,83.30
2022-11-06T11:56:14.638Z,83.10
2022-11-06T11:58:42.227Z,83.20
2022-11-06T12:01:09.771Z,83.20
2022-11-06T12:03:40.718Z,83.40
2022-11-06T12:06:10.368Z,83.40
2022-11-06T12:08:39.288Z,83.30
2022-11-06T12:11:08.654Z,83.40
2022-11-06T12:13:36.233Z,82.80
2022-11-06T12:16:06.144Z,82.60
2022-11-06T12:18:34.992Z,82.90
2022-11-06T12:21:05.037Z,81.90
2022-11-06T12:23:35.339Z,81.70
2022-11-06T12:26:06.817Z,81.50
2022-11-06T12:28:37.600Z,81.10
2022-11-06T12:31:08.073Z,81.50
2022-11-06T12:34:04.977Z,81.10
2022-11-06T12:36:27.290Z,81.10
2022-11-06T12:38:56.796Z,81.40
2022-11-06T12:41:27.032Z,81.10
2022-11-06T12:43:56.958Z,81.50
2022-11-06T12:46:30.264Z,81.30
2022-11-06T12:49:18.951Z,81.20
2022-11-06T12:51:52.087Z,80.90
2022-11-06T12:54:25.635Z,81.30
2022-11-06T12:56:57.474Z,81.30
2022-11-06T12:59:33.995Z,81.00
2022-11-06T13:02:05.396Z,81.20
2022-11-06T13:04:41.373Z,81.10
2022-11-06T13:07:20.212Z,80.90
2022-11-06T13:09:52.679Z,81.20
2022-11-06T13:12:23.523Z,81.00
2022-11-06T13:14:58.129Z,81.20
2022-11-06T13:17:29.426Z,80.80
2022-11-06T13:19:59.922Z,81.00
2022-11-06T13:22:30.699Z,80.50
2022-11-06T13:25:01.287Z,80.90
2022-11-06T13:27:31.998Z,81.00
2022-11-06T13:30:03.024Z,80.80
2022-11-06T13:32:32.145Z,80.80
2022-11-06T13:35:00.625Z,80.30
2022-11-06T13:37:35.808Z,80.70
2022-11-06T13:40:06.685Z,80.50
2022-11-06T13:42:37.470Z,80.50
2022-11-06T13:45:07.743Z,80.00
2022-11-06T13:47:37.595Z,80.00
2022-11-06T13:50:06.975Z,80.00
2022-11-06T13:52:39.065Z,80.30
2022-11-06T13:55:14.927Z,80.20
2022-11-06T13:57:55.235Z,80.40
2022-11-06T14:00:24.663Z,80.70
2022-11-06T14:03:10.430Z,81.60
2022-11-06T14:05:54.469Z,81.90
2022-11-06T14:08:24.842Z,82.10
2022-11-06T14:10:54.677Z,82.70
2022-11-06T14:13:29.547Z,83.00
2022-11-06T14:16:06.457Z,83.00
2022-11-06T14:18:34.694Z,83.40
2022-11-06T14:21:21.006Z,83.20
2022-11-06T14:23:52.962Z,83.70
2022-11-06T14:26:35.425Z,83.40
2022-11-06T14:29:17.978Z,83.20
2022-11-06T14:32:02.631Z,83.40
2022-11-06T14:34:31.118Z,83.50
2022-11-06T14:36:59.082Z,83.80
2022-11-06T14:39:50.459Z,84.00
2022-11-06T14:42:22.935Z,84.00
2022-11-06T14:44:55.723Z,84.20
2022-11-06T14:47:27.284Z,84.40
2022-11-06T14:49:55.983Z,84.50
2022-11-06T14:52:24.807Z,84.60
2022-11-06T14:54:54.496Z,84.80
2022-11-06T14:57:35.200Z,84.80
2022-11-06T15:00:03.377Z,84.90
2022-11-06T15:02:34.375Z,85.00
2022-11-06T15:05:03.111Z,85.10
2022-11-06T15:08:03.095Z,85.20
2022-11-06T15:10:41.462Z,85.40
2022-11-06T15:13:11.602Z,85.80
2022-11-06T15:15:41.865Z,85.50
2022-11-06T15:18:13.293Z,85.50
2022-11-06T15:20:41.336Z,85.80
2022-11-06T15:23:14.374Z,85.60
2022-11-06T15:25:48.359Z,85.20
2022-11-06T15:28:18.700Z,85.20
2022-11-06T15:30:48.179Z,85.30
2022-11-06T15:33:19.776Z,85.10
2022-11-06T15:35:49.516Z,85.30
2022-11-06T15:38:19.756Z,85.30
2022-11-06T15:40:48.262Z,85.20
2022-11-06T15:43:23.072Z,85.40
2022-11-06T15:46:07.053Z,85.60
2022-11-06T15:48:36.530Z,85.80
2022-11-06T15:51:05.608Z,86.10
2022-11-06T15:53:39.735Z,86.40
2022-11-06T15:56:09.307Z,86.20
2022-11-06T15:58:37.461Z,86.40
2022-11-06T16:01:06.070Z,86.30
2022-11-06T16:03:43.811Z,86.50
2022-11-06T16:06:12.735Z,86.30
2022-11-06T16:08:41.666Z,86.00
2022-11-06T16:11:13.575Z,85.90
2022-11-06T16:13:41.607Z,85.80
2022-11-06T16:16:29.639Z,85.90
2022-11-06T16:18:57.472Z,86.00
2022-11-06T16:21:28.853Z,86.20
2022-11-06T16:23:58.169Z,85.70
2022-11-06T16:26:27.081Z,85.60
2022-11-06T16:28:56.054Z,85.70
2022-11-06T16:31:25.156Z,85.60
2022-11-06T16:33:56.292Z,84.90
2022-11-06T16:36:24.666Z,85.20
2022-11-06T16:38:54.105Z,84.80
2022-11-06T16:41:39.266Z,85.10
2022-11-06T16:44:29.308Z,84.50
2022-11-06T16:47:18.085Z,84.80
2022-11-06T16:49:52.617Z,84.30
2022-11-06T16:52:23.077Z,84.00
2022-11-06T16:54:52.713Z,89.20
2022-11-06T16:57:21.835Z,85.60
2022-11-06T16:59:55.346Z,85.60
2022-11-06T17:02:25.204Z,84.00
2022-11-06T17:04:52.831Z,84.50
2022-11-06T17:07:21.490Z,83.20
2022-11-06T17:09:49.195Z,83.10
2022-11-06T17:12:18.190Z,81.20
2022-11-06T17:14:46.851Z,82.20
2022-11-06T17:17:25.474Z,81.80
2022-11-06T17:19:53.272Z,82.20
2022-11-06T17:22:20.860Z,82.40
2022-11-06T17:24:48.421Z,82.00
2022-11-06T17:27:16.136Z,82.40
2022-11-06T17:29:45.203Z,82.50
2022-11-06T17:32:12.943Z,82.40
2022-11-06T17:34:40.494Z,82.30
2022-11-06T17:37:11.068Z,82.50
2022-11-06T17:39:38.761Z,82.40
2022-11-06T17:42:06.594Z,82.70
2022-11-06T17:44:34.133Z,82.70
2022-11-06T17:47:03.026Z,82.60
2022-11-06T17:49:30.653Z,82.60
2022-11-06T17:52:01.272Z,82.90
2022-11-06T17:54:31.895Z,82.80
2022-11-06T17:57:00.127Z,82.80
2022-11-06T17:59:27.709Z,82.30
2022-11-06T18:01:58.543Z,82.90
2022-11-06T18:04:30.502Z,83.10
2022-11-06T18:06:58.342Z,83.10
2022-11-06T18:09:26.175Z,83.10
2022-11-06T18:11:54.417Z,83.10
2022-11-06T18:14:23.284Z,83.00
2022-11-06T18:16:51.254Z,83.00
2022-11-06T18:19:20.699Z,83.00
2022-11-06T18:21:49.821Z,82.90
2022-11-06T18:24:17.626Z,82.50
2022-11-06T18:26:45.238Z,82.80
2022-11-06T18:29:13.469Z,82.40
2022-11-06T18:31:41.382Z,82.70
2022-11-06T18:34:16.720Z,82.30
2022-11-06T18:36:47.383Z,82.60
2022-11-06T18:39:16.535Z,82.50
2022-11-06T18:41:44.177Z,82.50
2022-11-06T18:44:11.837Z,82.10
2022-11-06T18:46:39.367Z,82.40
2022-11-06T18:49:07.254Z,82.10
2022-11-06T18:51:36.349Z,82.20
2022-11-06T18:54:06.764Z,81.90
2022-11-06T18:56:35.919Z,82.20
2022-11-06T18:59:04.095Z,82.00
2022-11-06T19:01:31.864Z,82.00
2022-11-06T19:03:59.643Z,82.40
2022-11-06T19:06:27.323Z,81.80
2022-11-06T19:08:54.922Z,81.80
2022-11-06T19:11:22.861Z,81.70
2022-11-06T19:13:54.991Z,81.60
2022-11-06T19:16:22.631Z,80.70
2022-11-06T19:21:29.703Z,80.80
2022-11-06T19:24:05.406Z,80.70
2022-11-06T19:26:35.212Z,80.00
2022-11-06T19:29:04.616Z,80.70
2022-11-06T19:31:33.201Z,80.10
2022-11-06T19:34:01.381Z,80.20
2022-11-06T19:36:29.528Z,79.90
2022-11-06T19:38:58.317Z,79.60
2022-11-06T19:41:26.604Z,79.90
2022-11-06T19:43:54.437Z,79.50
2022-11-06T19:46:28.291Z,79.40
2022-11-06T19:48:57.296Z,79.00
2022-11-06T19:51:25.816Z,79.10
2022-11-06T19:53:53.875Z,78.70
2022-11-06T19:56:21.945Z,78.60
2022-11-06T19:58:50.821Z,78.70
2022-11-06T20:01:19.346Z,78.40
2022-11-06T20:03:48.561Z,78.80
2022-11-06T20:06:17.358Z,78.40
2022-11-06T20:08:47.729Z,78.00
2022-11-06T20:11:15.873Z,78.10
2022-11-06T20:13:44.242Z,77.80
2022-11-06T20:16:12.948Z,78.10
2022-11-06T20:18:40.820Z,77.90
2022-11-06T20:21:10.693Z,78.10
2022-11-06T20:23:38.679Z,77.70
2022-11-06T20:26:06.462Z,77.70
2022-11-06T20:28:34.415Z,77.50
2022-11-06T20:31:05.191Z,77.80
2022-11-06T20:33:33.088Z,77.70
2022-11-06T20:36:08.824Z,77.90
2022-11-06T20:38:38.619Z,77.50
2022-11-06T20:41:06.339Z,77.20
2022-11-06T20:43:34.930Z,77.60
2022-11-06T20:46:03.404Z,77.40
2022-11-06T20:48:31.304Z,78.00
2022-11-06T20:51:00.378Z,78.60
2022-11-06T20:53:28.781Z,77.90
2022-11-06T20:55:59.578Z,78.80
2022-11-06T20:58:28.267Z,79.60
2022-11-06T21:01:01.547Z,79.40
2022-11-06T21:03:29.381Z,80.70
2022-11-06T21:05:57.691Z,81.10
2022-11-06T21:08:25.965Z,83.20
2022-11-06T21:10:54.296Z,83.60
2022-11-06T21:13:23.246Z,84.20
2022-11-06T21:15:56.889Z,84.30
2022-11-06T21:18:24.869Z,86.10
2022-11-06T21:20:52.610Z,86.10
2022-11-06T21:23:20.875Z,87.70
2022-11-06T21:25:48.898Z,88.40
2022-11-06T21:28:16.885Z,89.60
2022-11-06T21:30:50.770Z,90.10
2022-11-06T21:33:18.495Z,90.20
2022-11-06T21:35:46.685Z,90.30
2022-11-06T21:38:14.645Z,90.80
2022-11-06T21:40:42.483Z,91.10
2022-11-06T21:43:10.508Z,91.30
2022-11-06T21:45:38.546Z,91.30
2022-11-06T21:48:14.879Z,91.70
2022-11-06T21:50:53.538Z,91.70
2022-11-06T21:53:38.739Z,91.60
2022-11-06T21:56:07.128Z,91.80
2022-11-06T21:58:35.123Z,91.70
2022-11-06T22:01:03.693Z,92.10
2022-11-06T22:03:33.817Z,91.80
2022-11-06T22:06:05.521Z,91.60
2022-11-06T22:08:35.752Z,91.50
2022-11-06T22:11:10.608Z,91.70
2022-11-06T22:13:38.471Z,91.50
2022-11-06T22:16:06.577Z,91.70
2022-11-06T22:18:35.834Z,91.40
2022-11-06T22:21:07.013Z,91.10
2022-11-06T22:23:34.757Z,91.70
2022-11-06T22:26:03.937Z,90.40
2022-11-06T22:28:31.770Z,90.80
2022-11-06T22:31:00.330Z,90.70
2022-11-06T22:33:28.570Z,90.40
2022-11-06T22:36:03.084Z,90.70
2022-11-06T22:38:31.062Z,91.00
2022-11-06T22:40:59.422Z,90.40
2022-11-06T22:43:27.863Z,90.40
2022-11-06T22:45:59.091Z,90.80
2022-11-06T22:48:27.293Z,90.30
2022-11-06T22:50:55.203Z,90.10
2022-11-06T22:53:24.416Z,90.30
2022-11-06T22:55:55.924Z,90.20
2022-11-06T22:58:23.948Z,90.20
2022-11-06T23:00:52.170Z,90.10
2022-11-06T23:03:20.280Z,90.20
2022-11-06T23:05:48.065Z,89.50
2022-11-06T23:08:16.269Z,89.80
2022-11-06T23:10:45.248Z,89.60
2022-11-06T23:13:12.994Z,89.50
2022-11-06T23:15:40.962Z,89.50
2022-11-06T23:18:08.612Z,89.50
2022-11-06T23:20:36.595Z,89.60
2022-11-06T23:23:04.775Z,89.40
2022-11-06T23:25:32.744Z,89.40
2022-11-06T23:28:02.433Z,89.90
2022-11-06T23:30:30.929Z,89.60
2022-11-06T23:32:58.675Z,89.30
2022-11-06T23:35:32.200Z,89.30
2022-11-06T23:38:00.502Z,89.80
2022-11-06T23:40:28.403Z,89.60
2022-11-06T23:42:57.547Z,89.40
2022-11-06T23:45:44.252Z,89.40
2022-11-06T23:48:13.066Z,89.30
2022-11-06T23:50:40.697Z,89.20
2022-11-06T23:53:08.331Z,88.80
2022-11-06T23:55:35.999Z,89.20
2022-11-06T23:58:03.601Z,89.10
